sensor_id;sensor_type;location;lat;lon;timestamp;pressure;altitude;pressure_sealevel;temperature;humidity
73332;BME280;61560;33.718;73.040;2022-08-19T00:00:36;93800.16;;;27.04;75.97
73332;BME280;61560;33.718;73.040;2022-08-19T00:03:05;93794.09;;;27.00;75.75
73332;BME280;61560;33.718;73.040;2022-08-19T00:05:34;93805.56;;;27.02;76.15
73332;BME280;61560;33.718;73.040;2022-08-19T00:08:02;93799.94;;;27.02;76.27
73332;BME280;61560;33.718;73.040;2022-08-19T00:10:29;93801.78;;;27.00;76.06
73332;BME280;61560;33.718;73.040;2022-08-19T00:12:55;93805.34;;;27.00;75.91
73332;BME280;61560;33.718;73.040;2022-08-19T00:15:22;93806.63;;;26.99;76.44
73332;BME280;61560;33.718;73.040;2022-08-19T00:17:49;93800.28;;;26.99;75.97
73332;BME280;61560;33.718;73.040;2022-08-19T00:20:19;93807.53;;;26.94;76.52
73332;BME280;61560;33.718;73.040;2022-08-19T00:22:46;93803.19;;;26.93;76.77
73332;BME280;61560;33.718;73.040;2022-08-19T00:25:14;93800.38;;;26.93;76.42
73332;BME280;61560;33.718;73.040;2022-08-19T00:27:41;93802.75;;;26.89;76.18
73332;BME280;61560;33.718;73.040;2022-08-19T00:30:08;93806.88;;;26.88;76.85
73332;BME280;61560;33.718;73.040;2022-08-19T00:32:37;93807.22;;;26.85;76.59
73332;BME280;61560;33.718;73.040;2022-08-19T00:35:04;93803.66;;;26.84;76.56
73332;BME280;61560;33.718;73.040;2022-08-19T00:37:31;93804.41;;;26.85;76.62
73332;BME280;61560;33.718;73.040;2022-08-19T00:39:58;93810.78;;;26.85;76.87
73332;BME280;61560;33.718;73.040;2022-08-19T00:42:25;93803.88;;;26.86;76.56
73332;BME280;61560;33.718;73.040;2022-08-19T00:44:54;93806.25;;;26.82;76.73
73332;BME280;61560;33.718;73.040;2022-08-19T00:47:21;93816.19;;;26.83;76.50
73332;BME280;61560;33.718;73.040;2022-08-19T00:49:51;93822.78;;;26.86;76.76
73332;BME280;61560;33.718;73.040;2022-08-19T00:52:35;93822.66;;;26.91;76.33
73332;BME280;61560;33.718;73.040;2022-08-19T00:55:06;93826.00;;;26.90;76.57
73332;BME280;61560;33.718;73.040;2022-08-19T00:57:38;93827.75;;;26.93;76.41
73332;BME280;61560;33.718;73.040;2022-08-19T01:00:10;93827.97;;;26.95;76.41
73332;BME280;61560;33.718;73.040;2022-08-19T01:02:39;93823.41;;;26.92;76.70
73332;BME280;61560;33.718;73.040;2022-08-19T01:05:09;93827.75;;;26.93;76.27
73332;BME280;61560;33.718;73.040;2022-08-19T01:07:39;93835.50;;;27.00;76.38
73332;BME280;61560;33.718;73.040;2022-08-19T01:10:10;93834.44;;;27.03;75.87
73332;BME280;61560;33.718;73.040;2022-08-19T01:12:38;93831.28;;;27.06;75.83
73332;BME280;61560;33.718;73.040;2022-08-19T01:15:13;93835.28;;;27.11;75.58
73332;BME280;61560;33.718;73.040;2022-08-19T01:17:44;93827.38;;;27.09;76.19
73332;BME280;61560;33.718;73.040;2022-08-19T01:20:17;93824.88;;;27.19;75.74
73332;BME280;61560;33.718;73.040;2022-08-19T01:22:49;93839.69;;;27.19;75.58
73332;BME280;61560;33.718;73.040;2022-08-19T01:25:19;93839.56;;;27.25;75.25
73332;BME280;61560;33.718;73.040;2022-08-19T01:27:48;93837.28;;;27.36;75.05
73332;BME280;61560;33.718;73.040;2022-08-19T01:30:18;93846.53;;;27.44;74.62
73332;BME280;61560;33.718;73.040;2022-08-19T01:32:46;93844.91;;;27.49;73.73
73332;BME280;61560;33.718;73.040;2022-08-19T01:35:13;93844.78;;;27.54;74.13
73332;BME280;61560;33.718;73.040;2022-08-19T01:37:54;93846.56;;;27.65;73.38
73332;BME280;61560;33.718;73.040;2022-08-19T01:40:24;93853.94;;;27.68;73.23
73332;BME280;61560;33.718;73.040;2022-08-19T01:42:53;93847.19;;;27.71;73.73
73332;BME280;61560;33.718;73.040;2022-08-19T01:45:22;93840.50;;;27.74;73.28
73332;BME280;61560;33.718;73.040;2022-08-19T01:47:49;93846.06;;;27.87;72.67
73332;BME280;61560;33.718;73.040;2022-08-19T01:50:16;93850.66;;;27.98;73.11
73332;BME280;61560;33.718;73.040;2022-08-19T01:52:44;93851.78;;;28.15;72.36
73332;BME280;61560;33.718;73.040;2022-08-19T01:55:13;93855.19;;;28.42;71.98
73332;BME280;61560;33.718;73.040;2022-08-19T01:57:47;93852.75;;;28.67;71.28
73332;BME280;61560;33.718;73.040;2022-08-19T02:00:18;93859.69;;;29.01;70.39
73332;BME280;61560;33.718;73.040;2022-08-19T02:02:47;93859.16;;;29.39;68.93
73332;BME280;61560;33.718;73.040;2022-08-19T02:05:14;93858.72;;;29.85;67.08
73332;BME280;61560;33.718;73.040;2022-08-19T02:08:26;93856.81;;;31.71;62.37
73332;BME280;61560;33.718;73.040;2022-08-19T02:15:39;93861.00;;;35.53;50.39
73332;BME280;61560;33.718;73.040;2022-08-19T02:19:40;93851.34;;;36.86;46.85
73332;BME280;61560;33.718;73.040;2022-08-19T02:23:29;93863.16;;;37.98;43.63
73332;BME280;61560;33.718;73.040;2022-08-19T02:30:55;93852.53;;;39.85;39.77
73332;BME280;61560;33.718;73.040;2022-08-19T02:35:19;93852.59;;;40.49;38.74
73332;BME280;61560;33.718;73.040;2022-08-19T02:39:05;93851.50;;;40.81;37.82
73332;BME280;61560;33.718;73.040;2022-08-19T02:50:44;93850.22;;;38.64;41.77
73332;BME280;61560;33.718;73.040;2022-08-19T02:57:54;93853.44;;;37.16;44.63
73332;BME280;61560;33.718;73.040;2022-08-19T03:01:59;93860.59;;;36.25;47.40
73332;BME280;61560;33.718;73.040;2022-08-19T03:09:23;93867.75;;;34.73;50.19
73332;BME280;61560;33.718;73.040;2022-08-19T03:17:27;93861.59;;;34.04;53.43
73332;BME280;61560;33.718;73.040;2022-08-19T03:21:21;93865.38;;;33.90;53.42
73332;BME280;61560;33.718;73.040;2022-08-19T03:28:44;93865.78;;;33.42;54.74
73332;BME280;61560;33.718;73.040;2022-08-19T03:32:54;93871.81;;;33.29;56.39
73332;BME280;61560;33.718;73.040;2022-08-19T03:43:53;93885.81;;;33.44;55.29
73332;BME280;61560;33.718;73.040;2022-08-19T03:51:36;93876.16;;;33.91;53.58
73332;BME280;61560;33.718;73.040;2022-08-19T03:58:09;93873.59;;;38.26;43.55
73332;BME280;61560;33.718;73.040;2022-08-19T04:02:10;93882.06;;;40.25;38.66
73332;BME280;61560;33.718;73.040;2022-08-19T04:10:13;93877.25;;;43.09;32.31
73332;BME280;61560;33.718;73.040;2022-08-19T04:13:37;93877.09;;;44.38;30.75
73332;BME280;61560;33.718;73.040;2022-08-19T04:17:21;93874.75;;;45.07;29.87
73332;BME280;61560;33.718;73.040;2022-08-19T04:21:15;93875.47;;;45.86;27.78
73332;BME280;61560;33.718;73.040;2022-08-19T04:28:43;93884.78;;;46.26;27.16
73332;BME280;61560;33.718;73.040;2022-08-19T04:32:30;93867.25;;;46.88;26.18
73332;BME280;61560;33.718;73.040;2022-08-19T04:39:39;93871.88;;;47.45;24.98
73332;BME280;61560;33.718;73.040;2022-08-19T04:43:39;93872.22;;;47.83;23.72
73332;BME280;61560;33.718;73.040;2022-08-19T04:47:17;93879.31;;;48.33;23.50
73332;BME280;61560;33.718;73.040;2022-08-19T04:55:07;93878.94;;;48.17;23.41
73332;BME280;61560;33.718;73.040;2022-08-19T04:58:32;93872.69;;;48.58;22.63
73332;BME280;61560;33.718;73.040;2022-08-19T05:01:59;93868.91;;;48.52;23.00
73332;BME280;61560;33.718;73.040;2022-08-19T05:04:41;93870.44;;;48.55;22.37
73332;BME280;61560;33.718;73.040;2022-08-19T05:08:16;93867.88;;;49.00;20.67
73332;BME280;61560;33.718;73.040;2022-08-19T05:16:05;93867.69;;;49.24;20.27
73332;BME280;61560;33.718;73.040;2022-08-19T05:19:57;93867.16;;;49.34;20.42
73332;BME280;61560;33.718;73.040;2022-08-19T05:23:10;93863.72;;;49.45;20.39
73332;BME280;61560;33.718;73.040;2022-08-19T05:26:08;93872.28;;;49.71;19.86
73332;BME280;61560;33.718;73.040;2022-08-19T05:29:54;93873.16;;;49.79;20.33
73332;BME280;61560;33.718;73.040;2022-08-19T05:32:45;93863.88;;;49.49;20.22
73332;BME280;61560;33.718;73.040;2022-08-19T05:43:49;93867.44;;;49.48;20.65
73332;BME280;61560;33.718;73.040;2022-08-19T05:47:24;93875.78;;;49.30;20.61
73332;BME280;61560;33.718;73.040;2022-08-19T05:51:24;93872.00;;;49.23;20.57
73332;BME280;61560;33.718;73.040;2022-08-19T05:54:56;93863.94;;;48.88;21.03
73332;BME280;61560;33.718;73.040;2022-08-19T06:02:29;93876.31;;;48.57;21.10
73332;BME280;61560;33.718;73.040;2022-08-19T06:06:12;93864.78;;;48.03;21.27
73332;BME280;61560;33.718;73.040;2022-08-19T06:09:55;93872.41;;;46.23;23.35
73332;BME280;61560;33.718;73.040;2022-08-19T06:17:01;93864.53;;;44.66;26.08
73332;BME280;61560;33.718;73.040;2022-08-19T06:24:08;93862.69;;;42.89;28.69
73332;BME280;61560;33.718;73.040;2022-08-19T06:27:11;93863.34;;;42.43;28.94
73332;BME280;61560;33.718;73.040;2022-08-19T06:31:10;93862.91;;;41.90;30.30
73332;BME280;61560;33.718;73.040;2022-08-19T06:38:37;93864.16;;;41.44;31.21
73332;BME280;61560;33.718;73.040;2022-08-19T06:44:59;93851.84;;;41.01;31.25
73332;BME280;61560;33.718;73.040;2022-08-19T06:48:26;93854.44;;;40.70;31.95
73332;BME280;61560;33.718;73.040;2022-08-19T06:52:20;93856.75;;;40.21;33.51
73332;BME280;61560;33.718;73.040;2022-08-19T06:59:22;93843.81;;;39.83;34.64
73332;BME280;61560;33.718;73.040;2022-08-19T07:02:03;93846.63;;;39.70;34.58
73332;BME280;61560;33.718;73.040;2022-08-19T07:04:49;93849.00;;;39.62;34.68
73332;BME280;61560;33.718;73.040;2022-08-19T07:07:34;93844.56;;;39.47;34.34
73332;BME280;61560;33.718;73.040;2022-08-19T07:13:55;93840.00;;;39.31;35.22
73332;BME280;61560;33.718;73.040;2022-08-19T07:17:36;93836.66;;;39.22;35.81
73332;BME280;61560;33.718;73.040;2022-08-19T07:21:42;93839.28;;;39.18;36.48
73332;BME280;61560;33.718;73.040;2022-08-19T07:25:12;93835.66;;;39.06;36.35
73332;BME280;61560;33.718;73.040;2022-08-19T07:28:07;93833.28;;;39.03;35.84
73332;BME280;61560;33.718;73.040;2022-08-19T07:30:46;93834.94;;;38.83;35.52
73332;BME280;61560;33.718;73.040;2022-08-19T07:34:14;93841.28;;;38.58;36.62
73332;BME280;61560;33.718;73.040;2022-08-19T07:37:04;93839.41;;;38.63;37.35
73332;BME280;61560;33.718;73.040;2022-08-19T07:39:55;93832.31;;;38.52;36.76
73332;BME280;61560;33.718;73.040;2022-08-19T07:43:33;93827.81;;;38.37;37.46
73332;BME280;61560;33.718;73.040;2022-08-19T07:47:03;93825.47;;;38.45;37.74
73332;BME280;61560;33.718;73.040;2022-08-19T07:53:13;93826.69;;;38.31;38.81
73332;BME280;61560;33.718;73.040;2022-08-19T07:56:49;93825.09;;;38.28;38.89
73332;BME280;61560;33.718;73.040;2022-08-19T08:00:59;93814.22;;;38.15;38.79
73332;BME280;61560;33.718;73.040;2022-08-19T08:04:37;93813.19;;;38.10;38.89
73332;BME280;61560;33.718;73.040;2022-08-19T08:08:21;93811.78;;;37.88;38.63
73332;BME280;61560;33.718;73.040;2022-08-19T08:19:34;93796.78;;;37.99;38.83
73332;BME280;61560;33.718;73.040;2022-08-19T08:27:00;93799.09;;;37.80;38.37
73332;BME280;61560;33.718;73.040;2022-08-19T08:30:29;93801.41;;;37.71;39.32
73332;BME280;61560;33.718;73.040;2022-08-19T08:34:18;93792.56;;;37.35;40.06
73332;BME280;61560;33.718;73.040;2022-08-19T08:45:43;93784.53;;;37.43;38.86
73332;BME280;61560;33.718;73.040;2022-08-19T08:51:34;93780.72;;;37.29;40.33
73332;BME280;61560;33.718;73.040;2022-08-19T08:54:04;93772.38;;;37.21;40.56
73332;BME280;61560;33.718;73.040;2022-08-19T08:56:32;93775.22;;;37.21;40.85
73332;BME280;61560;33.718;73.040;2022-08-19T08:59:05;93770.47;;;37.14;40.46
73332;BME280;61560;33.718;73.040;2022-08-19T09:01:37;93764.34;;;37.08;40.72
73332;BME280;61560;33.718;73.040;2022-08-19T09:04:07;93767.47;;;37.12;40.28
73332;BME280;61560;33.718;73.040;2022-08-19T09:07:18;93757.47;;;37.23;40.37
73332;BME280;61560;33.718;73.040;2022-08-19T09:09:44;93756.63;;;37.32;40.42
73332;BME280;61560;33.718;73.040;2022-08-19T09:15:02;93750.19;;;37.31;39.70
73332;BME280;61560;33.718;73.040;2022-08-19T09:17:32;93744.88;;;37.16;39.88
73332;BME280;61560;33.718;73.040;2022-08-19T09:20:21;93749.59;;;37.12;40.20
73332;BME280;61560;33.718;73.040;2022-08-19T09:22:56;93744.75;;;37.14;39.91
73332;BME280;61560;33.718;73.040;2022-08-19T09:25:25;93736.81;;;37.13;40.11
73332;BME280;61560;33.718;73.040;2022-08-19T09:27:54;93729.31;;;37.08;39.79
73332;BME280;61560;33.718;73.040;2022-08-19T09:30:29;93730.44;;;37.03;38.93
73332;BME280;61560;33.718;73.040;2022-08-19T09:32:58;93724.84;;;37.05;39.62
73332;BME280;61560;33.718;73.040;2022-08-19T09:35:27;93725.44;;;37.03;39.10
73332;BME280;61560;33.718;73.040;2022-08-19T09:37:56;93719.69;;;36.91;39.06
73332;BME280;61560;33.718;73.040;2022-08-19T09:40:23;93718.69;;;36.87;38.61
73332;BME280;61560;33.718;73.040;2022-08-19T09:42:51;93719.28;;;36.85;38.21
73332;BME280;61560;33.718;73.040;2022-08-19T09:45:19;93715.66;;;36.85;38.52
73332;BME280;61560;33.718;73.040;2022-08-19T09:47:49;93708.94;;;36.80;37.75
73332;BME280;61560;33.718;73.040;2022-08-19T09:50:17;93701.13;;;36.81;37.85
73332;BME280;61560;33.718;73.040;2022-08-19T09:52:45;93701.59;;;36.77;38.34
73332;BME280;61560;33.718;73.040;2022-08-19T09:55:12;93696.31;;;36.62;38.41
73332;BME280;61560;33.718;73.040;2022-08-19T09:57:39;93698.56;;;36.64;39.08
73332;BME280;61560;33.718;73.040;2022-08-19T10:00:08;93692.38;;;36.67;38.55
73332;BME280;61560;33.718;73.040;2022-08-19T10:02:35;93686.66;;;36.67;38.52
73332;BME280;61560;33.718;73.040;2022-08-19T10:05:02;93687.28;;;36.66;38.80
73332;BME280;61560;33.718;73.040;2022-08-19T10:07:47;93677.84;;;36.63;38.87
73332;BME280;61560;33.718;73.040;2022-08-19T10:10:14;93672.13;;;36.63;39.13
73332;BME280;61560;33.718;73.040;2022-08-19T10:12:41;93678.78;;;36.56;38.68
73332;BME280;61560;33.718;73.040;2022-08-19T10:15:12;93674.91;;;36.52;38.30
73332;BME280;61560;33.718;73.040;2022-08-19T10:17:39;93672.53;;;36.48;38.81
73332;BME280;61560;33.718;73.040;2022-08-19T10:20:06;93661.34;;;36.41;39.08
73332;BME280;61560;33.718;73.040;2022-08-19T10:22:32;93663.13;;;36.36;39.40
73332;BME280;61560;33.718;73.040;2022-08-19T10:25:01;93657.28;;;36.34;39.84
73332;BME280;61560;33.718;73.040;2022-08-19T10:27:28;93649.34;;;36.33;40.12
73332;BME280;61560;33.718;73.040;2022-08-19T10:29:55;93653.53;;;36.32;39.65
73332;BME280;61560;33.718;73.040;2022-08-19T10:32:22;93642.63;;;36.28;39.75
73332;BME280;61560;33.718;73.040;2022-08-19T10:34:51;93650.50;;;36.39;40.38
73332;BME280;61560;33.718;73.040;2022-08-19T10:37:18;93640.88;;;36.44;39.79
73332;BME280;61560;33.718;73.040;2022-08-19T10:39:46;93650.94;;;36.45;40.58
73332;BME280;61560;33.718;73.040;2022-08-19T10:42:14;93636.41;;;36.41;40.41
73332;BME280;61560;33.718;73.040;2022-08-19T10:44:44;93637.88;;;36.42;40.34
73332;BME280;61560;33.718;73.040;2022-08-19T10:47:12;93626.19;;;36.38;40.45
73332;BME280;61560;33.718;73.040;2022-08-19T10:49:39;93627.88;;;36.32;40.11
73332;BME280;61560;33.718;73.040;2022-08-19T10:52:25;93628.09;;;36.24;40.32
73332;BME280;61560;33.718;73.040;2022-08-19T10:55:02;93622.88;;;36.21;40.37
73332;BME280;61560;33.718;73.040;2022-08-19T10:57:49;93623.31;;;36.17;39.63
73332;BME280;61560;33.718;73.040;2022-08-19T11:00:18;93621.34;;;36.19;40.05
73332;BME280;61560;33.718;73.040;2022-08-19T11:02:47;93614.78;;;36.17;40.01
73332;BME280;61560;33.718;73.040;2022-08-19T11:05:15;93623.81;;;36.13;40.10
73332;BME280;61560;33.718;73.040;2022-08-19T11:07:43;93612.88;;;36.10;39.87
73332;BME280;61560;33.718;73.040;2022-08-19T11:10:13;93608.53;;;36.09;40.05
73332;BME280;61560;33.718;73.040;2022-08-19T11:12:40;93614.69;;;36.05;39.98
73332;BME280;61560;33.718;73.040;2022-08-19T11:15:09;93617.69;;;36.07;40.23
73332;BME280;61560;33.718;73.040;2022-08-19T11:17:38;93615.59;;;36.08;40.60
73332;BME280;61560;33.718;73.040;2022-08-19T11:20:13;93613.16;;;36.14;40.66
73332;BME280;61560;33.718;73.040;2022-08-19T11:22:40;93596.19;;;36.16;40.23
73332;BME280;61560;33.718;73.040;2022-08-19T11:25:09;93607.31;;;36.12;40.05
73332;BME280;61560;33.718;73.040;2022-08-19T11:27:40;93592.66;;;36.06;39.67
73332;BME280;61560;33.718;73.040;2022-08-19T11:30:12;93597.47;;;36.03;40.65
73332;BME280;61560;33.718;73.040;2022-08-19T11:32:40;93598.66;;;36.00;40.78
73332;BME280;61560;33.718;73.040;2022-08-19T11:35:08;93592.69;;;35.96;40.94
73332;BME280;61560;33.718;73.040;2022-08-19T11:37:34;93595.25;;;35.92;40.39
73332;BME280;61560;33.718;73.040;2022-08-19T11:40:04;93590.16;;;35.91;39.67
73332;BME280;61560;33.718;73.040;2022-08-19T11:42:31;93596.63;;;35.91;40.14
73332;BME280;61560;33.718;73.040;2022-08-19T11:45:16;93608.22;;;35.84;39.75
73332;BME280;61560;33.718;73.040;2022-08-19T11:47:43;93604.47;;;35.81;39.52
73332;BME280;61560;33.718;73.040;2022-08-19T11:50:10;93602.69;;;35.76;39.68
73332;BME280;61560;33.718;73.040;2022-08-19T11:52:36;93597.47;;;35.73;39.85
73332;BME280;61560;33.718;73.040;2022-08-19T11:55:03;93597.81;;;35.67;39.66
73332;BME280;61560;33.718;73.040;2022-08-19T11:57:31;93588.22;;;35.63;39.63
73332;BME280;61560;33.718;73.040;2022-08-19T11:59:58;93583.88;;;35.62;40.01
73332;BME280;61560;33.718;73.040;2022-08-19T12:02:24;93585.84;;;35.59;40.64
73332;BME280;61560;33.718;73.040;2022-08-19T12:04:51;93577.75;;;35.56;41.02
73332;BME280;61560;33.718;73.040;2022-08-19T12:07:18;93582.28;;;35.49;41.33
73332;BME280;61560;33.718;73.040;2022-08-19T12:09:45;93588.13;;;35.51;41.15
73332;BME280;61560;33.718;73.040;2022-08-19T12:12:11;93591.28;;;35.46;42.22
73332;BME280;61560;33.718;73.040;2022-08-19T12:14:39;93588.41;;;35.46;42.18
73332;BME280;61560;33.718;73.040;2022-08-19T12:17:06;93587.66;;;35.45;42.60
73332;BME280;61560;33.718;73.040;2022-08-19T12:19:36;93588.28;;;35.43;42.46
73332;BME280;61560;33.718;73.040;2022-08-19T12:22:03;93588.47;;;35.36;42.36
73332;BME280;61560;33.718;73.040;2022-08-19T12:24:32;93587.28;;;35.29;42.77
73332;BME280;61560;33.718;73.040;2022-08-19T12:26:59;93581.94;;;35.24;42.64
73332;BME280;61560;33.718;73.040;2022-08-19T12:29:28;93592.28;;;35.19;42.98
73332;BME280;61560;33.718;73.040;2022-08-19T12:31:57;93583.91;;;35.12;42.94
73332;BME280;61560;33.718;73.040;2022-08-19T12:34:32;93595.03;;;35.08;42.79
73332;BME280;61560;33.718;73.040;2022-08-19T12:37:01;93591.41;;;35.07;43.40
73332;BME280;61560;33.718;73.040;2022-08-19T12:39:28;93590.38;;;35.03;43.23
73332;BME280;61560;33.718;73.040;2022-08-19T12:41:56;93593.84;;;35.01;43.59
73332;BME280;61560;33.718;73.040;2022-08-19T12:44:23;93595.03;;;34.98;43.72
73332;BME280;61560;33.718;73.040;2022-08-19T12:46:50;93597.41;;;34.92;43.46
73332;BME280;61560;33.718;73.040;2022-08-19T12:49:17;93597.72;;;34.87;44.11
73332;BME280;61560;33.718;73.040;2022-08-19T12:51:43;93600.44;;;34.85;44.07
73332;BME280;61560;33.718;73.040;2022-08-19T12:54:10;93593.66;;;34.90;44.23
73332;BME280;61560;33.718;73.040;2022-08-19T12:56:37;93598.50;;;34.87;43.72
73332;BME280;61560;33.718;73.040;2022-08-19T12:59:03;93595.50;;;34.85;43.94
73332;BME280;61560;33.718;73.040;2022-08-19T13:01:30;93588.28;;;34.84;44.25
73332;BME280;61560;33.718;73.040;2022-08-19T13:03:59;93587.25;;;34.80;44.50
73332;BME280;61560;33.718;73.040;2022-08-19T13:06:26;93590.13;;;34.70;45.07
73332;BME280;61560;33.718;73.040;2022-08-19T13:08:54;93579.78;;;34.65;45.49
73332;BME280;61560;33.718;73.040;2022-08-19T13:11:21;93580.72;;;34.58;46.42
73332;BME280;61560;33.718;73.040;2022-08-19T13:13:51;93574.59;;;34.52;47.02
73332;BME280;61560;33.718;73.040;2022-08-19T13:16:18;93583.06;;;34.42;48.00
73332;BME280;61560;33.718;73.040;2022-08-19T13:18:46;93593.84;;;34.34;48.42
73332;BME280;61560;33.718;73.040;2022-08-19T13:21:13;93585.47;;;34.27;48.52
73332;BME280;61560;33.718;73.040;2022-08-19T13:23:41;93584.72;;;34.17;48.82
73332;BME280;61560;33.718;73.040;2022-08-19T13:26:10;93587.88;;;34.11;49.17
73332;BME280;61560;33.718;73.040;2022-08-19T13:28:37;93593.38;;;34.00;48.92
73332;BME280;61560;33.718;73.040;2022-08-19T13:31:24;93590.81;;;33.84;49.36
73332;BME280;61560;33.718;73.040;2022-08-19T13:34:10;93586.13;;;33.70;49.71
73332;BME280;61560;33.718;73.040;2022-08-19T13:36:37;93595.38;;;33.61;50.54
73332;BME280;61560;33.718;73.040;2022-08-19T13:39:06;93590.28;;;33.50;50.90
73332;BME280;61560;33.718;73.040;2022-08-19T13:41:36;93595.72;;;33.38;51.04
73332;BME280;61560;33.718;73.040;2022-08-19T13:44:04;93593.00;;;33.31;51.39
73332;BME280;61560;33.718;73.040;2022-08-19T13:46:32;93590.88;;;33.22;51.35
73332;BME280;61560;33.718;73.040;2022-08-19T13:48:58;93605.19;;;33.14;52.47
73332;BME280;61560;33.718;73.040;2022-08-19T13:51:25;93607.06;;;33.02;52.81
73332;BME280;61560;33.718;73.040;2022-08-19T13:53:52;93610.13;;;32.96;52.80
73332;BME280;61560;33.718;73.040;2022-08-19T13:56:19;93604.28;;;32.94;52.47
73332;BME280;61560;33.718;73.040;2022-08-19T13:58:46;93613.84;;;32.89;53.03
73332;BME280;61560;33.718;73.040;2022-08-19T14:01:19;93607.09;;;32.85;53.17
73332;BME280;61560;33.718;73.040;2022-08-19T14:03:47;93612.75;;;32.85;53.29
73332;BME280;61560;33.718;73.040;2022-08-19T14:06:13;93618.09;;;32.81;53.42
73332;BME280;61560;33.718;73.040;2022-08-19T14:08:40;93624.66;;;32.74;53.46
73332;BME280;61560;33.718;73.040;2022-08-19T14:11:08;93613.38;;;32.66;53.44
73332;BME280;61560;33.718;73.040;2022-08-19T14:13:35;93620.56;;;32.67;53.12
73332;BME280;61560;33.718;73.040;2022-08-19T14:16:06;93627.41;;;32.64;53.61
73332;BME280;61560;33.718;73.040;2022-08-19T14:18:33;93629.47;;;32.64;53.06
73332;BME280;61560;33.718;73.040;2022-08-19T14:21:00;93635.25;;;32.56;53.38
73332;BME280;61560;33.718;73.040;2022-08-19T14:23:26;93633.44;;;32.51;53.21
73332;BME280;61560;33.718;73.040;2022-08-19T14:25:53;93636.50;;;32.46;54.06
73332;BME280;61560;33.718;73.040;2022-08-19T14:28:21;93639.91;;;32.44;53.71
73332;BME280;61560;33.718;73.040;2022-08-19T14:30:48;93635.06;;;32.37;52.71
73332;BME280;61560;33.718;73.040;2022-08-19T14:33:15;93639.16;;;32.44;53.40
73332;BME280;61560;33.718;73.040;2022-08-19T14:35:42;93651.94;;;32.52;53.93
73332;BME280;61560;33.718;73.040;2022-08-19T14:38:16;93651.09;;;32.59;53.76
73332;BME280;61560;33.718;73.040;2022-08-19T14:40:44;93647.09;;;32.62;53.69
73332;BME280;61560;33.718;73.040;2022-08-19T14:43:10;93649.50;;;32.66;53.56
73332;BME280;61560;33.718;73.040;2022-08-19T14:45:39;93647.50;;;32.76;53.33
73332;BME280;61560;33.718;73.040;2022-08-19T14:48:06;93655.16;;;32.83;53.26
73332;BME280;61560;33.718;73.040;2022-08-19T14:50:34;93650.72;;;32.89;53.82
73332;BME280;61560;33.718;73.040;2022-08-19T14:53:07;93651.38;;;32.97;54.38
73332;BME280;61560;33.718;73.040;2022-08-19T14:55:35;93657.63;;;32.96;53.75
73332;BME280;61560;33.718;73.040;2022-08-19T14:58:02;93663.72;;;32.92;54.21
73332;BME280;61560;33.718;73.040;2022-08-19T15:00:28;93666.97;;;32.89;53.95
73332;BME280;61560;33.718;73.040;2022-08-19T15:02:55;93668.72;;;32.84;53.75
73332;BME280;61560;33.718;73.040;2022-08-19T15:05:22;93676.44;;;32.74;53.72
73332;BME280;61560;33.718;73.040;2022-08-19T15:07:49;93676.38;;;32.65;53.84
73332;BME280;61560;33.718;73.040;2022-08-19T15:10:16;93677.69;;;32.64;54.50
73332;BME280;61560;33.718;73.040;2022-08-19T15:12:42;93679.78;;;32.63;54.75
73332;BME280;61560;33.718;73.040;2022-08-19T15:15:12;93677.13;;;32.65;54.54
73332;BME280;61560;33.718;73.040;2022-08-19T15:17:40;93681.13;;;32.62;53.68
73332;BME280;61560;33.718;73.040;2022-08-19T15:20:08;93685.13;;;32.59;53.73
73332;BME280;61560;33.718;73.040;2022-08-19T15:22:35;93678.97;;;32.53;52.69
73332;BME280;61560;33.718;73.040;2022-08-19T15:25:04;93681.66;;;32.44;52.95
73332;BME280;61560;33.718;73.040;2022-08-19T15:27:31;93687.69;;;32.31;53.76
73332;BME280;61560;33.718;73.040;2022-08-19T15:29:58;93685.94;;;32.18;54.40
73332;BME280;61560;33.718;73.040;2022-08-19T15:32:24;93691.31;;;32.06;54.70
73332;BME280;61560;33.718;73.040;2022-08-19T15:34:52;93693.13;;;31.94;55.15
73332;BME280;61560;33.718;73.040;2022-08-19T15:37:20;93696.59;;;31.85;55.48
73332;BME280;61560;33.718;73.040;2022-08-19T15:39:50;93695.22;;;31.69;55.91
73332;BME280;61560;33.718;73.040;2022-08-19T15:42:17;93704.34;;;31.60;56.01
73332;BME280;61560;33.718;73.040;2022-08-19T15:44:45;93706.47;;;31.52;55.97
73332;BME280;61560;33.718;73.040;2022-08-19T15:47:12;93709.72;;;31.48;56.15
73332;BME280;61560;33.718;73.040;2022-08-19T15:49:39;93709.88;;;31.51;56.21
73332;BME280;61560;33.718;73.040;2022-08-19T15:52:06;93717.03;;;31.52;55.82
73332;BME280;61560;33.718;73.040;2022-08-19T15:54:33;93721.75;;;31.49;55.69
73332;BME280;61560;33.718;73.040;2022-08-19T15:56:59;93713.69;;;31.45;56.21
73332;BME280;61560;33.718;73.040;2022-08-19T16:00:05;93721.22;;;31.51;56.53
73332;BME280;61560;33.718;73.040;2022-08-19T16:02:50;93733.84;;;31.49;56.92
73332;BME280;61560;33.718;73.040;2022-08-19T16:05:36;93733.31;;;31.43;56.99
73332;BME280;61560;33.718;73.040;2022-08-19T16:08:21;93725.97;;;31.40;57.34
73332;BME280;61560;33.718;73.040;2022-08-19T16:10:47;93731.44;;;31.46;57.48
73332;BME280;61560;33.718;73.040;2022-08-19T16:13:14;93736.09;;;31.51;57.27
73332;BME280;61560;33.718;73.040;2022-08-19T16:15:41;93734.03;;;31.52;57.46
73332;BME280;61560;33.718;73.040;2022-08-19T16:18:11;93738.03;;;31.48;57.92
73332;BME280;61560;33.718;73.040;2022-08-19T16:20:37;93749.34;;;31.48;58.05
73332;BME280;61560;33.718;73.040;2022-08-19T16:23:04;93746.16;;;31.44;58.11
73332;BME280;61560;33.718;73.040;2022-08-19T16:25:31;93757.09;;;31.40;58.53
73332;BME280;61560;33.718;73.040;2022-08-19T16:27:58;93752.22;;;31.33;58.48
73332;BME280;61560;33.718;73.040;2022-08-19T16:30:25;93761.47;;;31.34;58.77